createdAt,value
2018-06-09T00:00:14.608Z,0.00
2018-06-09T00:01:14.621Z,0.00
2018-06-09T00:02:14.634Z,0.00
2018-06-09T00:03:14.650Z,0.00
2018-06-09T00:04:14.661Z,0.00
2018-06-09T00:05:14.676Z,0.00
2018-06-09T00:06:14.689Z,0.00
2018-06-09T00:07:14.701Z,0.00
2018-06-09T00:08:14.712Z,0.00
2018-06-09T00:09:14.726Z,0.00
2018-06-09T00:10:14.738Z,0.00
2018-06-09T00:11:14.762Z,0.00
2018-06-09T00:12:14.763Z,0.00
2018-06-09T00:13:14.779Z,0.00
2018-06-09T00:14:14.791Z,0.00
2018-06-09T00:15:14.803Z,0.00
2018-06-09T00:16:14.815Z,0.00
2018-06-09T00:17:14.838Z,0.00
2018-06-09T00:18:14.842Z,0.00
2018-06-09T00:19:14.852Z,0.00
2018-06-09T00:20:14.867Z,0.00
2018-06-09T00:21:14.877Z,0.00
2018-06-09T00:22:14.891Z,0.00
2018-06-09T00:23:14.912Z,0.00
2018-06-09T00:24:14.921Z,0.00
2018-06-09T00:25:14.930Z,0.00
2018-06-09T00:26:14.941Z,0.00
2018-06-09T00:27:14.957Z,0.00
2018-06-09T00:28:14.968Z,0.00
2018-06-09T00:29:14.989Z,0.00
2018-06-09T00:30:14.995Z,0.00
2018-06-09T00:31:15.012Z,0.00
2018-06-09T00:32:15.021Z,0.00
2018-06-09T00:33:15.037Z,0.00
2018-06-09T00:34:15.043Z,0.00
2018-06-09T00:35:15.067Z,0.00
2018-06-09T00:36:15.076Z,0.00
2018-06-09T00:37:15.092Z,0.00
2018-06-09T00:38:15.097Z,0.00
2018-06-09T00:39:15.108Z,0.00
2018-06-09T00:40:15.120Z,0.00
2018-06-09T00:41:15.135Z,0.00
2018-06-09T00:42:15.145Z,0.00
2018-06-09T00:43:15.160Z,0.00
2018-06-09T00:44:15.176Z,0.00
2018-06-09T00:45:15.184Z,0.00
2018-06-09T00:46:15.194Z,0.00
2018-06-09T00:47:15.209Z,0.00
2018-06-09T00:48:15.224Z,0.00
2018-06-09T00:49:15.241Z,0.00
2018-06-09T00:50:15.246Z,0.00
2018-06-09T00:51:15.260Z,0.00
2018-06-09T00:52:15.273Z,0.00
2018-06-09T00:53:15.296Z,0.00
2018-06-09T00:54:15.294Z,0.00
2018-06-09T00:55:15.310Z,0.00
2018-06-09T00:56:15.325Z,0.00
2018-06-09T00:57:15.332Z,0.00
2018-06-09T00:58:15.351Z,0.00
2018-06-09T00:59:15.361Z,0.00
2018-06-09T01:00:15.382Z,0.00
2018-06-09T01:01:15.384Z,0.00
2018-06-09T01:02:15.396Z,0.00
2018-06-09T01:03:15.410Z,0.00
2018-06-09T01:04:15.422Z,0.00
2018-06-09T01:05:15.435Z,0.00
2018-06-09T01:06:15.454Z,0.00
2018-06-09T01:07:15.460Z,0.00
2018-06-09T01:08:15.482Z,0.00
2018-06-09T01:09:15.485Z,0.00
2018-06-09T01:10:15.500Z,0.00
2018-06-09T01:11:15.518Z,0.00
2018-06-09T01:12:15.527Z,0.00
2018-06-09T01:13:15.551Z,0.00
2018-06-09T01:14:15.551Z,0.00
2018-06-09T01:15:15.564Z,0.00
2018-06-09T01:16:15.589Z,0.00
2018-06-09T01:17:15.591Z,0.00
2018-06-09T01:18:15.608Z,0.00
2018-06-09T01:19:15.622Z,0.00
2018-06-09T01:20:15.625Z,0.00
2018-06-09T01:21:15.636Z,0.00
2018-06-09T01:22:15.649Z,0.00
2018-06-09T01:23:15.667Z,0.00
2018-06-09T01:24:15.677Z,0.00
2018-06-09T01:25:15.708Z,0.00
2018-06-09T01:26:15.704Z,0.00
2018-06-09T01:27:15.713Z,0.00
2018-06-09T01:28:15.729Z,0.00
2018-06-09T01:29:15.736Z,0.00
2018-06-09T01:30:15.756Z,0.00
2018-06-09T01:31:15.774Z,0.00
2018-06-09T01:32:15.776Z,0.00
2018-06-09T01:33:15.785Z,0.00
2018-06-09T01:34:15.800Z,0.00
2018-06-09T01:35:15.814Z,0.00
2018-06-09T01:36:15.833Z,0.00
2018-06-09T01:37:15.846Z,0.00
2018-06-09T01:38:15.847Z,0.00
2018-06-09T01:39:15.868Z,0.00
2018-06-09T01:40:15.879Z,0.00
2018-06-09T01:41:15.887Z,0.00
2018-06-09T01:42:15.901Z,0.00
2018-06-09T01:43:15.923Z,0.00
2018-06-09T01:44:15.929Z,0.00
2018-06-09T01:45:15.939Z,0.00
2018-06-09T01:46:15.954Z,0.00
2018-06-09T01:47:15.961Z,0.00
2018-06-09T01:48:15.976Z,0.00
2018-06-09T01:49:15.984Z,0.00
2018-06-09T01:50:16.005Z,0.00
2018-06-09T01:51:16.011Z,0.00
2018-06-09T01:52:16.023Z,0.00
2018-06-09T01:53:16.034Z,0.00
2018-06-09T01:54:16.044Z,0.00
2018-06-09T01:55:16.059Z,0.00
2018-06-09T01:56:16.070Z,0.00
2018-06-09T01:57:16.108Z,0.00
2018-06-09T01:58:16.095Z,0.00
2018-06-09T01:59:16.108Z,0.00
2018-06-09T02:00:16.122Z,0.00
2018-06-09T02:01:16.130Z,0.00
2018-06-09T02:02:16.145Z,0.00
2018-06-09T02:03:16.165Z,0.00
2018-06-09T02:04:16.202Z,0.00
2018-06-09T02:05:16.183Z,0.00
2018-06-09T02:06:16.195Z,0.00
2018-06-09T02:07:16.204Z,0.00
2018-06-09T02:08:16.219Z,0.00
2018-06-09T02:09:16.240Z,0.00
2018-06-09T02:10:16.244Z,0.00
2018-06-09T02:11:16.255Z,0.00
2018-06-09T02:12:16.271Z,0.00
2018-06-09T02:13:16.284Z,0.00
2018-06-09T02:14:16.293Z,0.00
2018-06-09T02:15:16.325Z,0.00
2018-06-09T02:16:16.320Z,0.00
2018-06-09T02:17:16.330Z,0.00
2018-06-09T02:18:16.343Z,0.00
2018-06-09T02:19:16.361Z,0.00
2018-06-09T02:20:16.365Z,0.00
2018-06-09T02:21:16.384Z,0.00
2018-06-09T02:22:16.389Z,0.00
2018-06-09T02:23:16.403Z,0.00
2018-06-09T02:24:16.419Z,0.00
2018-06-09T02:25:16.434Z,0.00
2018-06-09T02:26:16.440Z,0.00
2018-06-09T02:27:16.475Z,0.00
2018-06-09T02:28:16.467Z,0.00
2018-06-09T02:29:16.482Z,0.00
2018-06-09T02:30:16.492Z,0.00
2018-06-09T02:31:16.500Z,0.00
2018-06-09T02:32:16.538Z,0.00
2018-06-09T02:33:16.544Z,0.00
2018-06-09T02:34:16.537Z,0.00
2018-06-09T02:35:16.591Z,0.00
2018-06-09T02:36:16.561Z,0.00
2018-06-09T02:37:16.575Z,0.00
2018-06-09T02:38:16.598Z,0.00
2018-06-09T02:39:16.600Z,0.00
2018-06-09T02:40:16.610Z,0.00
2018-06-09T02:41:16.636Z,0.00
2018-06-09T02:42:16.637Z,0.00
2018-06-09T02:43:16.652Z,0.00
2018-06-09T02:44:16.660Z,0.00
2018-06-09T02:45:16.671Z,0.00
2018-06-09T02:46:16.690Z,0.00
2018-06-09T02:47:16.704Z,0.00
2018-06-09T02:48:16.708Z,4.00
2018-06-09T02:49:16.723Z,4.00
2018-06-09T02:50:16.740Z,4.00
2018-06-09T02:51:16.746Z,0.00
2018-06-09T02:52:16.791Z,4.00
2018-06-09T02:53:16.769Z,4.00
2018-06-09T02:54:16.789Z,8.00
2018-06-09T02:55:16.797Z,4.00
2018-06-09T02:56:16.809Z,8.00
2018-06-09T02:57:16.820Z,8.00
2018-06-09T02:58:16.834Z,12.00
2018-06-09T02:59:16.846Z,8.00
2018-06-09T03:00:16.856Z,12.00
2018-06-09T03:01:16.883Z,16.00
2018-06-09T03:02:16.877Z,16.00
2018-06-09T03:03:16.892Z,16.00
2018-06-09T03:04:16.909Z,20.00
2018-06-09T03:05:16.918Z,24.00
2018-06-09T03:06:16.930Z,28.00
2018-06-09T03:07:16.940Z,32.00
2018-06-09T03:08:16.956Z,32.00
2018-06-09T03:09:16.969Z,36.00
2018-06-09T03:10:16.996Z,40.00
2018-06-09T03:11:16.990Z,48.00
2018-06-09T03:12:17.006Z,48.00
2018-06-09T03:13:17.020Z,52.00
2018-06-09T03:14:17.024Z,60.00
2018-06-09T03:15:17.038Z,64.00
2018-06-09T03:16:17.059Z,72.00
2018-06-09T03:17:17.065Z,80.00
2018-06-09T03:18:17.075Z,88.00
2018-06-09T03:19:17.096Z,96.00
2018-06-09T03:20:17.101Z,104.00
2018-06-09T03:21:17.113Z,112.00
2018-06-09T03:22:17.123Z,120.00
2018-06-09T03:23:17.137Z,128.00
2018-06-09T03:24:17.170Z,140.00
2018-06-09T03:25:17.157Z,152.00
2018-06-09T03:26:17.178Z,160.00
2018-06-09T03:27:17.181Z,172.00
2018-06-09T03:28:17.192Z,188.00
2018-06-09T03:29:17.221Z,196.00
2018-06-09T03:30:17.218Z,208.00
2018-06-09T03:31:17.238Z,224.00
2018-06-09T03:32:17.247Z,236.00
2018-06-09T03:33:17.255Z,252.00
2018-06-09T03:34:17.265Z,268.00
2018-06-09T03:35:17.276Z,284.00
2018-06-09T03:36:17.294Z,300.00
2018-06-09T03:37:17.301Z,316.00
2018-06-09T03:38:17.313Z,332.00
2018-06-09T03:39:17.356Z,352.00
2018-06-09T03:40:17.343Z,364.00
2018-06-09T03:41:17.349Z,384.00
2018-06-09T03:42:17.362Z,400.00
2018-06-09T03:43:17.437Z,412.00
2018-06-09T03:44:17.386Z,432.00
2018-06-09T03:45:17.405Z,448.00
2018-06-09T03:46:17.418Z,464.00
2018-06-09T03:47:17.423Z,484.00
2018-06-09T03:48:17.434Z,500.00
2018-06-09T03:49:17.465Z,516.00
2018-06-09T03:50:17.457Z,536.00
2018-06-09T03:51:17.469Z,560.00
2018-06-09T03:52:17.492Z,588.00
2018-06-09T03:53:17.493Z,620.00
2018-06-09T03:54:17.510Z,652.00
2018-06-09T03:55:17.520Z,696.00
2018-06-09T03:56:17.546Z,740.00
2018-06-09T03:57:17.543Z,788.00
2018-06-09T03:58:17.559Z,836.00
2018-06-09T03:59:17.568Z,868.00
2018-06-09T04:00:17.588Z,876.00
2018-06-09T04:01:17.589Z,872.00
2018-06-09T04:02:17.601Z,876.00
2018-06-09T04:03:17.616Z,884.00
2018-06-09T04:04:17.644Z,900.00
2018-06-09T04:05:17.635Z,920.00
2018-06-09T04:06:17.652Z,940.00
2018-06-09T04:07:17.662Z,964.00
2018-06-09T04:08:17.676Z,984.00
2018-06-09T04:09:17.685Z,1004.00
2018-06-09T04:10:17.699Z,1024.00
2018-06-09T04:11:17.720Z,1048.00
2018-06-09T04:12:17.729Z,1064.00
2018-06-09T04:13:17.739Z,1080.00
2018-06-09T04:14:17.748Z,1096.00
2018-06-09T04:15:17.759Z,1116.00
2018-06-09T04:16:17.773Z,1136.00
2018-06-09T04:17:17.781Z,1156.00
2018-06-09T04:18:17.808Z,1180.00
2018-06-09T04:19:17.814Z,1200.00
2018-06-09T04:20:17.823Z,1220.00
2018-06-09T04:21:17.831Z,1236.00
2018-06-09T04:22:17.843Z,1256.00
2018-06-09T04:23:17.859Z,1272.00
2018-06-09T04:24:17.873Z,1296.00
2018-06-09T04:25:17.878Z,1320.00
2018-06-09T04:26:17.894Z,1340.00
2018-06-09T04:27:17.905Z,1376.00
2018-06-09T04:28:17.934Z,1412.00
2018-06-09T04:29:17.934Z,1460.00
2018-06-09T04:30:17.940Z,1544.00
2018-06-09T04:31:17.960Z,1676.00
2018-06-09T04:32:17.963Z,1732.00
2018-06-09T04:33:17.984Z,1740.00
2018-06-09T04:34:17.997Z,1768.00
2018-06-09T04:35:18.015Z,1792.00
2018-06-09T04:36:18.013Z,1784.00
2018-06-09T04:37:18.037Z,1780.00
2018-06-09T04:38:18.042Z,1768.00
2018-06-09T04:39:18.051Z,1776.00
2018-06-09T04:40:18.060Z,1832.00
2018-06-09T04:41:18.074Z,1856.00
2018-06-09T04:42:18.085Z,1812.00
2018-06-09T04:43:18.108Z,1736.00
2018-06-09T04:44:18.114Z,1672.00
2018-06-09T04:45:18.124Z,1688.00
2018-06-09T04:46:18.135Z,1660.00
2018-06-09T04:47:18.147Z,1604.00
2018-06-09T04:48:18.167Z,1560.00
2018-06-09T04:49:18.174Z,1516.00
2018-06-09T04:50:18.188Z,1580.00
2018-06-09T04:51:18.198Z,1640.00
2018-06-09T04:52:18.303Z,1736.00
2018-06-09T04:53:18.240Z,1752.00
2018-06-09T04:54:18.230Z,1788.00
2018-06-09T04:55:18.243Z,1820.00
2018-06-09T04:56:18.264Z,1908.00
2018-06-09T04:57:18.274Z,1940.00
2018-06-09T04:58:18.282Z,1976.00
2018-06-09T04:59:18.344Z,1996.00
2018-06-09T05:00:18.307Z,2020.00
2018-06-09T05:01:18.317Z,2204.00
2018-06-09T05:02:18.336Z,2420.00
2018-06-09T05:03:18.343Z,2684.00
2018-06-09T05:04:18.354Z,2680.00
2018-06-09T05:05:18.367Z,2704.00
2018-06-09T05:06:18.382Z,2696.00
2018-06-09T05:07:18.401Z,2760.00
2018-06-09T05:08:18.414Z,2848.00
2018-06-09T05:09:18.420Z,3024.00
2018-06-09T05:10:18.432Z,3028.00
2018-06-09T05:11:18.476Z,2932.00
2018-06-09T05:12:18.459Z,3048.00
2018-06-09T05:13:18.470Z,2828.00
2018-06-09T05:14:18.503Z,2568.00
2018-06-09T05:15:18.491Z,2244.00
2018-06-09T05:16:18.509Z,1724.00
2018-06-09T05:17:18.520Z,1672.00
2018-06-09T05:18:18.534Z,1508.00
2018-06-09T05:19:18.554Z,1480.00
2018-06-09T05:20:18.555Z,1484.00
2018-06-09T05:21:18.569Z,1524.00
2018-06-09T05:22:18.577Z,1612.00
2018-06-09T05:23:18.590Z,1564.00
2018-06-09T05:24:18.618Z,1708.00
2018-06-09T05:25:18.622Z,1636.00
2018-06-09T05:26:18.701Z,1620.00
2018-06-09T05:27:18.648Z,1660.00
2018-06-09T05:28:18.660Z,1660.00
2018-06-09T05:29:18.663Z,1656.00
2018-06-09T05:30:18.679Z,1516.00
2018-06-09T05:31:18.692Z,1672.00
2018-06-09T05:32:18.709Z,1756.00
2018-06-09T05:33:18.722Z,1836.00
2018-06-09T05:34:18.737Z,2080.00
2018-06-09T05:35:18.744Z,2336.00
2018-06-09T05:36:18.756Z,2472.00
2018-06-09T05:37:18.764Z,2644.00
2018-06-09T05:38:18.782Z,2720.00
2018-06-09T05:39:18.789Z,3120.00
2018-06-09T05:40:18.806Z,3292.00
2018-06-09T05:41:18.824Z,3468.00
2018-06-09T05:42:18.828Z,3452.00
2018-06-09T05:43:18.839Z,3564.00
2018-06-09T05:44:18.852Z,3500.00
2018-06-09T05:45:18.869Z,3424.00
2018-06-09T05:46:18.879Z,3408.00
2018-06-09T05:47:18.888Z,3156.00
2018-06-09T05:48:18.908Z,2944.00
2018-06-09T05:49:18.920Z,2796.00
2018-06-09T05:50:18.928Z,2828.00
2018-06-09T05:51:18.941Z,2724.00
2018-06-09T05:52:18.963Z,2640.00
2018-06-09T05:53:18.968Z,2820.00
2018-06-09T05:54:18.979Z,2972.00
2018-06-09T05:55:18.990Z,2920.00
2018-06-09T05:56:19.015Z,2920.00
2018-06-09T05:57:19.014Z,3328.00
2018-06-09T05:58:19.029Z,3248.00
2018-06-09T05:59:19.052Z,3440.00
2018-06-09T06:00:19.054Z,3268.00
2018-06-09T06:01:19.071Z,3264.00
2018-06-09T06:02:19.097Z,3332.00
2018-06-09T06:03:19.092Z,3072.00
2018-06-09T06:04:19.104Z,3300.00
2018-06-09T06:05:19.116Z,3160.00
2018-06-09T06:06:19.129Z,3240.00
2018-06-09T06:07:19.142Z,3148.00
2018-06-09T06:08:19.179Z,3304.00
2018-06-09T06:09:19.180Z,3172.00
2018-06-09T06:10:19.190Z,2912.00
2018-06-09T06:11:19.196Z,2700.00
2018-06-09T06:12:19.205Z,2448.00
2018-06-09T06:13:19.225Z,2480.00
2018-06-09T06:14:19.235Z,2452.00
2018-06-09T06:15:19.254Z,2476.00
2018-06-09T06:16:19.256Z,2504.00
2018-06-09T06:17:19.269Z,2420.00
2018-06-09T06:18:19.291Z,2476.00
2018-06-09T06:19:19.294Z,2560.00
2018-06-09T06:20:19.314Z,2640.00
2018-06-09T06:21:19.320Z,2688.00
2018-06-09T06:22:19.334Z,2872.00
2018-06-09T06:23:19.348Z,3072.00
2018-06-09T06:24:19.360Z,3228.00
2018-06-09T06:25:19.381Z,3344.00
2018-06-09T06:26:19.382Z,3488.00
2018-06-09T06:27:19.401Z,3548.00
2018-06-09T06:28:19.411Z,3620.00
2018-06-09T06:29:19.426Z,3708.00
2018-06-09T06:30:19.450Z,3480.00
2018-06-09T06:31:19.446Z,3516.00
2018-06-09T06:32:19.460Z,3584.00
2018-06-09T06:33:19.471Z,3664.00
2018-06-09T06:34:19.488Z,3972.00
2018-06-09T06:35:19.503Z,3800.00
2018-06-09T06:36:19.538Z,3804.00
2018-06-09T06:37:19.522Z,4192.00
2018-06-09T06:38:19.536Z,4604.00
2018-06-09T06:39:19.548Z,4784.00
2018-06-09T06:40:19.563Z,5032.00
2018-06-09T06:41:19.572Z,5208.00
2018-06-09T06:42:19.592Z,5616.00
2018-06-09T06:43:19.600Z,5840.00
2018-06-09T06:44:20.078Z,6244.00
2018-06-09T06:45:19.622Z,6364.00
2018-06-09T06:46:19.638Z,6696.00
2018-06-09T06:47:19.697Z,6896.00
2018-06-09T06:48:19.665Z,7108.00
2018-06-09T06:49:19.684Z,7220.00
2018-06-09T06:50:19.722Z,7520.00
2018-06-09T06:51:19.704Z,7664.00
2018-06-09T06:52:19.780Z,7824.00
2018-06-09T06:53:19.725Z,7764.00
2018-06-09T06:54:19.737Z,7684.00
2018-06-09T06:55:19.757Z,7604.00
2018-06-09T06:56:19.767Z,7556.00
2018-06-09T06:57:19.786Z,7428.00
2018-06-09T06:58:19.819Z,7512.00
2018-06-09T06:59:19.812Z,7388.00
2018-06-09T07:00:19.819Z,7500.00
2018-06-09T07:01:19.829Z,7724.00
2018-06-09T07:02:19.843Z,7804.00
2018-06-09T07:03:19.859Z,7864.00
2018-06-09T07:04:19.872Z,7968.00
2018-06-09T07:05:19.889Z,7848.00
2018-06-09T07:06:19.897Z,7708.00
2018-06-09T07:07:19.909Z,7956.00
2018-06-09T07:08:19.920Z,7380.00
2018-06-09T07:09:19.934Z,7996.00
2018-06-09T07:10:19.948Z,7712.00
2018-06-09T07:11:19.964Z,7668.00
2018-06-09T07:12:19.974Z,7572.00
2018-06-09T07:13:19.989Z,7736.00
2018-06-09T07:14:19.999Z,7776.00
2018-06-09T07:15:20.016Z,7832.00
2018-06-09T07:16:20.028Z,7752.00
2018-06-09T07:17:20.041Z,7588.00
2018-06-09T07:18:20.073Z,7564.00
2018-06-09T07:19:20.080Z,7556.00
2018-06-09T07:20:20.081Z,7980.00
2018-06-09T07:21:20.095Z,7936.00
2018-06-09T07:22:20.108Z,7840.00
2018-06-09T07:23:20.125Z,8148.00
2018-06-09T07:24:20.135Z,8452.00
2018-06-09T07:25:20.154Z,8556.00
2018-06-09T07:26:20.162Z,8736.00
2018-06-09T07:27:20.174Z,8924.00
2018-06-09T07:28:20.189Z,9004.00
2018-06-09T07:29:20.199Z,9016.00
2018-06-09T07:30:20.215Z,9172.00
2018-06-09T07:31:20.227Z,9376.00
2018-06-09T07:32:20.246Z,9484.00
2018-06-09T07:33:20.252Z,9540.00
2018-06-09T07:34:20.268Z,9804.00
2018-06-09T07:35:20.280Z,9868.00
2018-06-09T07:36:20.296Z,10008.00
2018-06-09T07:37:20.310Z,10212.00
2018-06-09T07:38:20.328Z,10476.00
2018-06-09T07:39:20.336Z,10668.00
2018-06-09T07:40:20.348Z,10872.00
2018-06-09T07:41:20.360Z,10956.00
2018-06-09T07:42:20.373Z,11016.00
2018-06-09T07:43:20.389Z,10972.00
2018-06-09T07:44:20.438Z,10884.00
2018-06-09T07:45:20.421Z,10832.00
2018-06-09T07:46:20.430Z,10720.00
2018-06-09T07:47:20.444Z,10656.00
2018-06-09T07:48:20.460Z,10616.00
2018-06-09T07:49:20.470Z,10800.00
2018-06-09T07:50:20.497Z,10956.00
2018-06-09T07:51:20.496Z,11048.00
2018-06-09T07:52:20.519Z,10900.00
2018-06-09T07:53:20.523Z,10900.00
2018-06-09T07:54:20.538Z,10416.00
2018-06-09T07:55:20.549Z,10536.00
2018-06-09T07:56:20.568Z,10900.00
2018-06-09T07:57:20.589Z,10756.00
2018-06-09T07:58:20.597Z,10420.00
2018-06-09T07:59:20.602Z,10680.00
2018-06-09T08:00:20.618Z,10456.00
2018-06-09T08:01:20.633Z,10248.00
2018-06-09T08:02:20.650Z,10008.00
2018-06-09T08:03:20.660Z,10320.00
2018-06-09T08:04:20.676Z,10076.00
2018-06-09T08:05:20.695Z,9564.00
2018-06-09T08:06:20.701Z,10216.00
2018-06-09T08:07:20.722Z,10064.00
2018-06-09T08:08:20.732Z,10276.00
2018-06-09T08:09:20.752Z,10832.00
2018-06-09T08:10:20.755Z,11096.00
2018-06-09T08:11:21.694Z,11008.00
2018-06-09T08:12:20.790Z,10996.00
2018-06-09T08:13:20.799Z,11172.00
2018-06-09T08:14:20.819Z,10992.00
2018-06-09T08:15:20.829Z,10352.00
2018-06-09T08:16:20.842Z,10376.00
2018-06-09T08:17:20.856Z,9736.00
2018-06-09T08:18:20.872Z,10000.00
2018-06-09T08:19:20.938Z,10284.00
2018-06-09T08:20:20.904Z,10636.00
2018-06-09T08:21:20.919Z,10532.00
2018-06-09T08:22:20.925Z,9932.00
2018-06-09T08:23:20.954Z,10324.00
2018-06-09T08:24:20.956Z,10800.00
2018-06-09T08:25:20.967Z,10956.00
2018-06-09T08:26:20.985Z,11096.00
2018-06-09T08:27:20.997Z,11332.00
2018-06-09T08:28:21.016Z,10592.00
2018-06-09T08:29:21.025Z,10332.00
2018-06-09T08:30:21.039Z,10640.00
2018-06-09T08:31:21.053Z,10752.00
2018-06-09T08:32:21.070Z,10404.00
2018-06-09T08:33:21.081Z,10644.00
2018-06-09T08:34:21.117Z,11172.00
2018-06-09T08:35:21.114Z,11400.00
2018-06-09T08:36:21.131Z,11960.00
2018-06-09T08:37:21.146Z,12128.00
2018-06-09T08:38:21.159Z,12444.00
2018-06-09T08:39:21.168Z,12888.00
2018-06-09T08:40:21.183Z,13296.00
2018-06-09T08:41:21.227Z,13296.00
2018-06-09T08:42:21.218Z,13444.00
2018-06-09T08:43:21.229Z,13736.00
2018-06-09T08:44:21.246Z,13804.00
2018-06-09T08:45:21.254Z,13844.00
2018-06-09T08:46:21.275Z,14292.00
2018-06-09T08:47:21.289Z,14896.00
2018-06-09T08:48:21.311Z,15388.00
2018-06-09T08:49:21.315Z,16352.00
2018-06-09T08:50:21.328Z,16576.00
2018-06-09T08:51:21.342Z,16896.00
2018-06-09T08:52:21.357Z,17184.00
2018-06-09T08:53:21.386Z,17984.00
2018-06-09T08:54:21.391Z,18240.00
2018-06-09T08:55:21.404Z,17920.00
2018-06-09T08:56:21.416Z,16416.00
2018-06-09T08:57:21.463Z,17088.00
2018-06-09T08:58:21.453Z,17120.00
2018-06-09T08:59:21.461Z,17088.00
2018-06-09T09:00:21.481Z,16096.00
2018-06-09T09:01:21.512Z,16576.00
2018-06-09T09:02:21.509Z,17632.00
2018-06-09T09:03:21.520Z,17440.00
2018-06-09T09:04:21.538Z,16000.00
2018-06-09T09:05:21.550Z,15872.00
2018-06-09T09:06:21.567Z,14956.00
2018-06-09T09:07:21.586Z,14564.00
2018-06-09T09:08:21.603Z,16096.00
2018-06-09T09:09:21.647Z,16800.00
2018-06-09T09:10:21.636Z,17088.00
2018-06-09T09:11:21.649Z,16320.00
2018-06-09T09:12:21.671Z,15968.00
2018-06-09T09:13:21.676Z,14788.00
2018-06-09T09:14:21.687Z,13680.00
2018-06-09T09:15:21.711Z,13384.00
2018-06-09T09:16:21.718Z,13712.00
2018-06-09T09:17:21.735Z,12756.00
2018-06-09T09:18:21.752Z,12320.00
2018-06-09T09:19:21.766Z,12956.00
2018-06-09T09:20:21.786Z,13472.00
2018-06-09T09:21:21.802Z,13560.00
2018-06-09T09:22:21.820Z,13308.00
2018-06-09T09:23:21.826Z,13500.00
2018-06-09T09:24:21.842Z,14780.00
2018-06-09T09:25:21.856Z,15088.00
2018-06-09T09:26:21.876Z,13876.00
2018-06-09T09:27:21.893Z,13616.00
2018-06-09T09:28:21.905Z,14152.00
2018-06-09T09:29:21.918Z,13924.00
2018-06-09T09:30:21.932Z,14888.00
2018-06-09T09:31:21.949Z,14092.00
2018-06-09T09:32:21.966Z,13388.00
2018-06-09T09:33:21.988Z,12876.00
2018-06-09T09:34:21.999Z,13428.00
2018-06-09T09:35:22.012Z,12836.00
2018-06-09T09:36:22.025Z,11492.00
2018-06-09T09:37:22.047Z,11176.00
2018-06-09T09:38:22.056Z,10796.00
2018-06-09T09:39:22.083Z,10156.00
2018-06-09T09:40:22.090Z,10196.00
2018-06-09T09:41:22.102Z,10120.00
2018-06-09T09:42:22.119Z,11376.00
2018-06-09T09:43:22.131Z,13656.00
2018-06-09T09:44:22.151Z,13604.00
2018-06-09T09:45:22.181Z,13216.00
2018-06-09T09:46:22.227Z,12540.00
2018-06-09T09:47:22.194Z,11908.00
2018-06-09T09:48:22.212Z,11624.00
2018-06-09T09:49:22.227Z,12736.00
2018-06-09T09:50:22.238Z,13176.00
2018-06-09T09:51:22.278Z,12372.00
2018-06-09T09:52:22.271Z,11960.00
2018-06-09T09:53:22.302Z,11052.00
2018-06-09T09:54:22.302Z,12048.00
2018-06-09T09:55:22.314Z,14544.00
2018-06-09T09:56:22.332Z,15536.00
2018-06-09T09:57:22.359Z,15224.00
2018-06-09T09:58:22.362Z,16768.00
2018-06-09T09:59:22.382Z,16736.00
2018-06-09T10:00:22.394Z,17152.00
2018-06-09T10:01:22.405Z,18272.00
2018-06-09T10:02:22.420Z,18208.00
2018-06-09T10:03:22.437Z,16512.00
2018-06-09T10:04:22.457Z,14000.00
2018-06-09T10:05:22.468Z,13112.00
2018-06-09T10:06:22.487Z,13352.00
2018-06-09T10:07:22.587Z,14836.00
2018-06-09T10:08:22.526Z,15412.00
2018-06-09T10:09:22.531Z,15368.00
2018-06-09T10:10:22.551Z,14832.00
2018-06-09T10:11:22.565Z,15528.00
2018-06-09T10:12:22.579Z,14648.00
2018-06-09T10:13:22.594Z,12960.00
2018-06-09T10:14:22.609Z,12028.00
2018-06-09T10:15:23.301Z,11476.00
2018-06-09T10:16:22.646Z,11140.00
2018-06-09T10:17:22.661Z,10316.00
2018-06-09T10:18:22.674Z,9940.00
2018-06-09T10:19:22.687Z,9736.00
2018-06-09T10:20:22.714Z,10152.00
2018-06-09T10:21:22.720Z,12676.00
2018-06-09T10:22:22.737Z,16736.00
2018-06-09T10:23:22.753Z,18112.00
2018-06-09T10:24:22.765Z,14524.00
2018-06-09T10:25:22.788Z,12720.00
2018-06-09T10:26:22.798Z,13460.00
2018-06-09T10:27:22.813Z,15420.00
2018-06-09T10:28:22.833Z,16320.00
2018-06-09T10:29:22.848Z,14204.00
2018-06-09T10:30:22.860Z,12208.00
2018-06-09T10:31:22.876Z,10936.00
2018-06-09T10:32:22.890Z,10652.00
2018-06-09T10:33:22.903Z,11340.00
2018-06-09T10:34:22.923Z,12564.00
2018-06-09T10:35:22.944Z,14636.00
2018-06-09T10:36:22.953Z,17600.00
2018-06-09T10:37:22.971Z,18464.00
2018-06-09T10:38:22.991Z,15720.00
2018-06-09T10:39:23.001Z,12916.00
2018-06-09T10:40:23.017Z,12964.00
2018-06-09T10:41:23.032Z,15912.00
2018-06-09T10:42:23.062Z,17984.00
2018-06-09T10:43:23.064Z,19936.00
2018-06-09T10:44:23.078Z,17312.00
2018-06-09T10:45:23.096Z,18656.00
2018-06-09T10:46:23.111Z,20416.00
2018-06-09T10:47:23.127Z,19072.00
2018-06-09T10:48:23.148Z,16552.00
2018-06-09T10:49:23.159Z,14308.00
2018-06-09T10:50:23.183Z,12736.00
2018-06-09T10:51:23.189Z,10680.00
2018-06-09T10:52:23.208Z,11748.00
2018-06-09T10:53:23.224Z,13744.00
2018-06-09T10:54:23.241Z,16140.00
2018-06-09T10:55:23.255Z,16020.00
2018-06-09T10:56:23.271Z,14720.00
2018-06-09T10:57:23.290Z,13816.00
2018-06-09T10:58:23.306Z,10972.00
2018-06-09T10:59:23.318Z,11628.00
2018-06-09T11:00:23.340Z,13376.00
2018-06-09T11:01:23.349Z,15436.00
2018-06-09T11:02:23.366Z,14552.00
2018-06-09T11:03:23.383Z,14324.00
2018-06-09T11:04:23.400Z,15756.00
2018-06-09T11:05:23.419Z,16744.00
2018-06-09T11:06:23.434Z,18432.00
2018-06-09T11:07:23.454Z,16736.00
2018-06-09T11:08:23.476Z,17952.00
2018-06-09T11:09:23.479Z,19456.00
2018-06-09T11:10:23.492Z,18304.00
2018-06-09T11:11:23.509Z,15336.00
2018-06-09T11:12:23.532Z,16304.00
2018-06-09T11:13:23.562Z,15784.00
2018-06-09T11:14:23.557Z,17116.00
2018-06-09T11:15:23.573Z,19840.00
2018-06-09T11:16:23.597Z,18688.00
2018-06-09T11:17:23.608Z,20000.00
2018-06-09T11:18:23.697Z,20352.00
2018-06-09T11:19:23.741Z,18688.00
2018-06-09T11:20:23.656Z,16132.00
2018-06-09T11:21:23.672Z,17376.00
2018-06-09T11:22:23.714Z,18784.00
2018-06-09T11:23:23.715Z,18912.00
2018-06-09T11:24:23.775Z,17532.00
2018-06-09T11:25:23.737Z,16504.00
2018-06-09T11:26:23.750Z,17568.00
2018-06-09T11:27:23.771Z,18912.00
2018-06-09T11:28:23.785Z,16248.00
2018-06-09T11:29:23.801Z,15064.00
2018-06-09T11:30:23.826Z,16016.00
2018-06-09T11:31:23.836Z,17024.00
2018-06-09T11:32:23.849Z,18304.00
2018-06-09T11:33:23.867Z,21760.00
2018-06-09T11:34:23.886Z,55232.00
2018-06-09T11:35:23.900Z,94016.00
2018-06-09T11:36:23.949Z,115168.00
2018-06-09T11:37:23.943Z,116864.00
2018-06-09T11:38:23.957Z,109856.00
2018-06-09T11:39:23.986Z,115584.00
2018-06-09T11:40:24.001Z,121600.00
2018-06-09T11:41:24.011Z,124512.00
2018-06-09T11:42:24.029Z,129088.00
2018-06-09T11:43:24.051Z,129920.00
2018-06-09T11:44:24.110Z,129792.00
2018-06-09T11:45:24.125Z,127200.00
2018-06-09T11:46:24.112Z,114880.00
2018-06-09T11:47:24.134Z,119264.00
2018-06-09T11:48:24.163Z,122624.00
2018-06-09T11:49:24.180Z,124032.00
2018-06-09T11:50:24.209Z,18624.00
2018-06-09T11:51:24.236Z,18976.00
2018-06-09T11:52:24.246Z,25376.00
2018-06-09T11:53:24.275Z,28512.00
2018-06-09T11:54:24.291Z,113664.00
2018-06-09T11:55:24.323Z,73184.00
2018-06-09T11:56:24.339Z,110976.00
2018-06-09T11:57:24.368Z,127168.00
2018-06-09T11:58:24.382Z,131200.00
2018-06-09T11:59:24.408Z,127232.00
2018-06-09T12:00:24.447Z,122144.00
2018-06-09T12:01:24.452Z,117696.00
2018-06-09T12:02:24.472Z,105088.00
2018-06-09T12:03:24.498Z,22784.00
2018-06-09T12:04:24.521Z,25184.00
2018-06-09T12:05:24.545Z,67680.00
2018-06-09T12:06:24.579Z,124128.00
2018-06-09T12:07:24.592Z,125024.00
2018-06-09T12:08:24.614Z,122176.00
2018-06-09T12:09:24.638Z,125472.00
2018-06-09T12:10:24.664Z,121152.00
2018-06-09T12:11:24.685Z,119392.00
2018-06-09T12:12:24.728Z,117632.00
2018-06-09T12:13:24.734Z,117312.00
2018-06-09T12:14:24.758Z,117568.00
2018-06-09T12:15:24.784Z,120832.00